Time;durP1;ratioP1;P1;durP2;ratioP2;P2;SDS_P1;SDS_P2;PMS_P1;PMS_P2;Temp;Humidity;BMP_temperature;BMP_pressure;BME280_temperature;BME280_humidity;BME280_pressure;Samples;Min_cycle;Max_cycle;Signal;HPM_P1;HPM_P2
2023/07/01 00:01:59;;;;;;;770.03;708.83;;;;;;;;;;5071314;28;20120;-61
2023/07/01 00:04:27;;;;;;;782.03;715.20;;;;;;;;;;5071413;28;20620;-62
2023/07/01 00:06:55;;;;;;;779.35;718.95;;;;;;;;;;5031920;28;20405;-60
2023/07/01 00:09:22;;;;;;;784.92;723.60;;;;;;;;;;5053003;28;20137;-60
2023/07/01 00:11:49;;;;;;;782.58;721.90;;;;;;;;;;5070616;28;20098;-60
2023/07/01 00:14:16;;;;;;;777.03;715.65;;;;;;;;;;5047253;28;20429;-60
2023/07/01 00:16:43;;;;;;;780.70;717.85;;;;;;;;;;5068795;28;20067;-60
2023/07/01 00:19:09;;;;;;;782.47;721.65;;;;;;;;;;5071793;28;20516;-60
2023/07/01 00:21:36;;;;;;;794.20;732.25;;;;;;;;;;5070900;28;20039;-60
2023/07/01 00:24:03;;;;;;;780.17;719.28;;;;;;;;;;5070955;28;20045;-59
2023/07/01 00:26:29;;;;;;;791.25;729.58;;;;;;;;;;5047233;28;20490;-60
2023/07/01 00:28:56;;;;;;;780.78;719.45;;;;;;;;;;5070939;28;20393;-60
2023/07/01 00:31:23;;;;;;;789.97;725.53;;;;;;;;;;5071088;28;20040;-60
2023/07/01 00:33:50;;;;;;;775.17;714.55;;;;;;;;;;5048189;28;20052;-61
2023/07/01 00:36:17;;;;;;;781.22;720.97;;;;;;;;;;5070793;28;20040;-60
2023/07/01 00:38:44;;;;;;;809.30;744.83;;;;;;;;;;5052553;28;20048;-60
2023/07/01 00:41:11;;;;;;;807.03;742.22;;;;;;;;;;5052365;28;20633;-60
2023/07/01 00:43:37;;;;;;;810.65;743.05;;;;;;;;;;5070591;28;20071;-60
2023/07/01 00:46:04;;;;;;;809.08;745.90;;;;;;;;;;5043582;28;20418;-60
2023/07/01 00:48:30;;;;;;;802.10;738.30;;;;;;;;;;5051722;28;20049;-60
2023/07/01 00:50:58;;;;;;;823.20;756.88;;;;;;;;;;5051292;28;20036;-61
2023/07/01 00:53:25;;;;;;;816.60;750.30;;;;;;;;;;5065772;28;20486;-59
2023/07/01 00:55:52;;;;;;;815.50;750.47;;;;;;;;;;5074937;28;20453;-61
2023/07/01 00:58:19;;;;;;;821.70;754.00;;;;;;;;;;5053847;28;20545;-61
2023/07/01 01:00:46;;;;;;;802.75;738.70;;;;;;;;;;5057339;28;20132;-60
2023/07/01 01:03:27;;;;;;;812.35;746.88;;;;;;;;;;5074554;28;20548;-61
2023/07/01 01:06:04;;;;;;;806.63;742.17;;;;;;;;;;5070774;28;20547;-59
2023/07/01 01:08:39;;;;;;;799.55;734.42;;;;;;;;;;5056585;28;20048;-59
2023/07/01 01:11:07;;;;;;;783.25;722.35;;;;;;;;;;5056125;28;20394;-60
2023/07/01 01:13:34;;;;;;;786.80;721.45;;;;;;;;;;5074169;28;20052;-60
2023/07/01 01:16:02;;;;;;;786.47;724.83;;;;;;;;;;5075317;28;20044;-60
2023/07/01 01:18:31;;;;;;;794.28;731.65;;;;;;;;;;5074297;28;20044;-65
2023/07/01 01:20:58;;;;;;;806.00;742.70;;;;;;;;;;5048838;28;20041;-60
2023/07/01 01:23:34;;;;;;;793.85;730.70;;;;;;;;;;5029119;28;20437;-60
2023/07/01 01:26:01;;;;;;;818.33;752.58;;;;;;;;;;5048698;28;20071;-60
2023/07/01 01:28:28;;;;;;;807.17;739.85;;;;;;;;;;5053033;28;20048;-61
2023/07/01 01:30:55;;;;;;;786.05;723.97;;;;;;;;;;5052190;28;20469;-60
2023/07/01 01:33:22;;;;;;;766.92;706.08;;;;;;;;;;5053532;28;20041;-60
2023/07/01 01:35:49;;;;;;;761.88;703.13;;;;;;;;;;5052041;28;20553;-60
2023/07/01 01:38:18;;;;;;;762.63;701.85;;;;;;;;;;5052230;28;20483;-61
2023/07/01 01:41:11;;;;;;;731.47;674.75;;;;;;;;;;5071792;28;20052;-60
2023/07/01 01:43:47;;;;;;;705.75;650.25;;;;;;;;;;5070131;28;20053;-60
2023/07/01 01:46:15;;;;;;;692.20;638.15;;;;;;;;;;5070072;28;20051;-59
2023/07/01 01:48:42;;;;;;;675.58;622.50;;;;;;;;;;5074040;28;20037;-61
2023/07/01 01:51:09;;;;;;;671.72;619.80;;;;;;;;;;5047053;28;20049;-61
2023/07/01 01:53:38;;;;;;;670.40;618.13;;;;;;;;;;5047476;28;20059;-60
2023/07/01 01:56:05;;;;;;;662.35;610.72;;;;;;;;;;5055305;28;20436;-60
2023/07/01 01:58:32;;;;;;;667.05;611.67;;;;;;;;;;5054456;28;20486;-60
2023/07/01 02:04:12;;;;;;;654.20;604.05;;;;;;;;;;5031732;28;20088;-53
2023/07/01 02:06:39;;;;;;;623.47;575.55;;;;;;;;;;5012182;28;20050;-59
2023/07/01 02:09:05;;;;;;;591.58;547.10;;;;;;;;;;5013679;28;20061;-59
2023/07/01 02:11:32;;;;;;;585.38;541.05;;;;;;;;;;5014721;28;20045;-58
2023/07/01 02:13:59;;;;;;;557.95;516.40;;;;;;;;;;5030549;28;20148;-54
2023/07/01 02:16:27;;;;;;;563.17;517.97;;;;;;;;;;5015021;28;20049;-60
2023/07/01 02:18:54;;;;;;;523.13;486.55;;;;;;;;;;5015778;28;20128;-58
2023/07/01 02:21:20;;;;;;;515.65;477.50;;;;;;;;;;5011513;28;20128;-61
2023/07/01 02:23:47;;;;;;;505.85;470.30;;;;;;;;;;5015017;28;20525;-62
2023/07/01 02:26:14;;;;;;;508.50;472.58;;;;;;;;;;5031539;28;20121;-60
2023/07/01 02:28:40;;;;;;;515.47;476.73;;;;;;;;;;5012846;28;20166;-61
2023/07/01 02:31:07;;;;;;;495.92;461.80;;;;;;;;;;5033326;28;20059;-61
2023/07/01 02:33:34;;;;;;;501.67;466.98;;;;;;;;;;5013960;28;20050;-57
2023/07/01 02:36:00;;;;;;;499.98;464.13;;;;;;;;;;5011751;28;20042;-54
2023/07/01 02:38:27;;;;;;;502.70;466.65;;;;;;;;;;5025754;28;20041;-57
2023/07/01 02:40:54;;;;;;;493.83;458.52;;;;;;;;;;5022183;28;20407;-50
2023/07/01 02:43:21;;;;;;;494.30;456.80;;;;;;;;;;5032459;28;20045;-58
2023/07/01 02:45:47;;;;;;;490.67;455.52;;;;;;;;;;5030920;28;20105;-60
2023/07/01 02:48:14;;;;;;;496.52;461.73;;;;;;;;;;5002582;28;20148;-60
2023/07/01 02:50:41;;;;;;;490.25;455.75;;;;;;;;;;5028156;28;20063;-52
2023/07/01 02:53:08;;;;;;;506.55;469.90;;;;;;;;;;5013858;28;20060;-59
2023/07/01 02:55:35;;;;;;;498.00;457.73;;;;;;;;;;5012781;28;20056;-60
2023/07/01 02:58:02;;;;;;;496.23;460.65;;;;;;;;;;5011870;28;20041;-57
2023/07/01 03:00:28;;;;;;;492.52;458.13;;;;;;;;;;5028583;28;20153;-51
2023/07/01 03:03:05;;;;;;;492.65;457.08;;;;;;;;;;5023046;28;20498;-56
2023/07/01 03:05:36;;;;;;;500.95;461.88;;;;;;;;;;5028989;28;20045;-59
2023/07/01 03:08:04;;;;;;;500.02;463.63;;;;;;;;;;5034355;28;20041;-59
2023/07/01 03:10:31;;;;;;;500.98;457.52;;;;;;;;;;5049048;28;20509;-55
2023/07/01 03:12:59;;;;;;;505.15;464.73;;;;;;;;;;5033269;28;20490;-57
2023/07/01 03:15:26;;;;;;;493.38;453.67;;;;;;;;;;5046859;28;20047;-59
2023/07/01 03:17:54;;;;;;;491.60;453.27;;;;;;;;;;5047476;28;20037;-57
2023/07/01 03:20:25;;;;;;;485.25;450.05;;;;;;;;;;5042099;28;20478;-59
2023/07/01 03:22:53;;;;;;;477.60;439.67;;;;;;;;;;5047281;28;20041;-57
2023/07/01 03:25:21;;;;;;;485.48;445.23;;;;;;;;;;5033094;28;20048;-59
2023/07/01 03:27:48;;;;;;;488.52;449.98;;;;;;;;;;5043696;28;20045;-59
2023/07/01 03:30:16;;;;;;;478.85;442.10;;;;;;;;;;5032647;28;20128;-53
2023/07/01 03:32:45;;;;;;;486.85;448.02;;;;;;;;;;5032460;28;20395;-56
2023/07/01 03:35:13;;;;;;;479.05;440.58;;;;;;;;;;5033295;28;20039;-59
2023/07/01 03:37:41;;;;;;;476.10;437.13;;;;;;;;;;5030586;28;20057;-56
2023/07/01 03:40:12;;;;;;;481.98;443.05;;;;;;;;;;5051908;28;20568;-57
2023/07/01 03:42:40;;;;;;;472.52;436.20;;;;;;;;;;5016163;28;20407;-53
2023/07/01 03:45:08;;;;;;;480.95;444.35;;;;;;;;;;5016795;28;20052;-60
2023/07/01 03:47:40;;;;;;;491.33;451.45;;;;;;;;;;5047261;28;20048;-59
2023/07/01 03:50:07;;;;;;;489.98;451.42;;;;;;;;;;5032890;28;20120;-60
2023/07/01 03:52:38;;;;;;;486.45;444.17;;;;;;;;;;5027584;28;20040;-60
2023/07/01 03:55:08;;;;;;;475.77;439.92;;;;;;;;;;5051084;28;20124;-60
2023/07/01 03:57:35;;;;;;;501.45;463.65;;;;;;;;;;5032639;28;20041;-60
2023/07/01 04:00:08;;;;;;;485.55;448.95;;;;;;;;;;5047928;28;20044;-53
2023/07/01 04:02:39;;;;;;;509.42;469.25;;;;;;;;;;5022847;28;20060;-54
2023/07/01 04:05:10;;;;;;;493.73;456.38;;;;;;;;;;5013546;28;20044;-55
2023/07/01 04:07:39;;;;;;;506.70;465.73;;;;;;;;;;4995542;28;20056;-57
2023/07/01 04:10:07;;;;;;;499.40;463.02;;;;;;;;;;5008462;28;20443;-56
2023/07/01 04:12:35;;;;;;;498.85;461.13;;;;;;;;;;4996650;28;20045;-57
2023/07/01 04:15:09;;;;;;;503.92;464.30;;;;;;;;;;5020455;28;20044;-55
2023/07/01 04:17:42;;;;;;;494.25;455.67;;;;;;;;;;5012279;28;20053;-58
2023/07/01 04:20:10;;;;;;;498.92;460.02;;;;;;;;;;5009396;28;20037;-56
2023/07/01 04:22:37;;;;;;;519.05;475.05;;;;;;;;;;5010183;28;20384;-58
2023/07/01 04:25:05;;;;;;;513.47;473.60;;;;;;;;;;5029856;28;20049;-59
2023/07/01 04:27:33;;;;;;;480.65;443.25;;;;;;;;;;5018831;28;20049;-52
2023/07/01 04:30:00;;;;;;;494.80;457.25;;;;;;;;;;5008955;28;20132;-53
2023/07/01 04:32:28;;;;;;;505.00;465.88;;;;;;;;;;5012488;28;20045;-58
2023/07/01 04:34:56;;;;;;;509.10;468.00;;;;;;;;;;5027788;28;20089;-57
2023/07/01 04:37:23;;;;;;;509.13;466.92;;;;;;;;;;5012486;28;20125;-60
2023/07/01 04:39:50;;;;;;;509.08;468.90;;;;;;;;;;5027736;28;20046;-55
2023/07/01 04:42:18;;;;;;;507.15;465.42;;;;;;;;;;5012431;28;20087;-59
2023/07/01 04:44:53;;;;;;;504.27;465.50;;;;;;;;;;5005507;28;20038;-58
2023/07/01 04:47:22;;;;;;;504.55;464.13;;;;;;;;;;5012671;28;20133;-58
2023/07/01 04:49:52;;;;;;;516.63;474.50;;;;;;;;;;5023254;28;20049;-58
2023/07/01 04:52:21;;;;;;;501.75;461.52;;;;;;;;;;5010052;28;20049;-52
2023/07/01 04:54:48;;;;;;;526.03;484.90;;;;;;;;;;5006729;28;20057;-59
2023/07/01 04:57:16;;;;;;;512.58;473.25;;;;;;;;;;5028290;28;20060;-59
2023/07/01 04:59:43;;;;;;;527.08;486.45;;;;;;;;;;5011951;28;20057;-57
2023/07/01 05:02:10;;;;;;;526.88;483.50;;;;;;;;;;5008803;28;20049;-57
2023/07/01 05:04:38;;;;;;;532.22;486.67;;;;;;;;;;5028682;28;20049;-58
2023/07/01 05:07:05;;;;;;;531.00;489.90;;;;;;;;;;5013698;28;20038;-58
2023/07/01 05:09:33;;;;;;;531.95;492.05;;;;;;;;;;4996016;28;20045;-56
2023/07/01 05:12:00;;;;;;;534.45;493.48;;;;;;;;;;5011766;28;20037;-55
2023/07/01 05:14:27;;;;;;;550.25;507.52;;;;;;;;;;5028282;28;20041;-59
2023/07/01 05:16:55;;;;;;;543.40;499.90;;;;;;;;;;5024480;28;20038;-58
2023/07/01 05:19:22;;;;;;;527.17;485.92;;;;;;;;;;5022955;28;20046;-59
2023/07/01 05:21:53;;;;;;;556.40;511.05;;;;;;;;;;5010331;28;20503;-53
2023/07/01 05:24:20;;;;;;;560.97;517.05;;;;;;;;;;5011903;28;20129;-55
2023/07/01 05:26:49;;;;;;;562.00;518.90;;;;;;;;;;5026640;28;20488;-58
2023/07/01 05:29:17;;;;;;;576.78;531.72;;;;;;;;;;5012417;28;20041;-55
2023/07/01 05:31:44;;;;;;;587.40;539.55;;;;;;;;;;5010079;28;20399;-52
2023/07/01 05:34:12;;;;;;;588.75;543.17;;;;;;;;;;5034081;28;20053;-53
2023/07/01 05:36:39;;;;;;;591.55;544.88;;;;;;;;;;5016088;28;20594;-58
2023/07/01 05:39:06;;;;;;;597.38;550.17;;;;;;;;;;5015716;28;20406;-59
2023/07/01 05:41:34;;;;;;;568.40;522.13;;;;;;;;;;5016256;28;20411;-60
2023/07/01 05:44:02;;;;;;;594.47;544.17;;;;;;;;;;5015175;28;20048;-60
2023/07/01 05:46:30;;;;;;;600.88;548.88;;;;;;;;;;5015705;28;20049;-59
2023/07/01 05:48:58;;;;;;;585.75;538.90;;;;;;;;;;5030827;28;20399;-62
2023/07/01 05:51:26;;;;;;;612.53;566.05;;;;;;;;;;4999708;28;20112;-63
2023/07/01 05:53:53;;;;;;;602.90;551.53;;;;;;;;;;5030295;28;20041;-59
2023/07/01 05:56:26;;;;;;;;;;;;;;;;;;5014633;28;20068;-58
2023/07/01 05:58:53;;;;;;;635.78;584.00;;;;;;;;;;5031009;28;19931;-61
2023/07/01 06:01:20;;;;;;;640.05;589.85;;;;;;;;;;5034512;28;20483;-60
2023/07/01 06:03:46;;;;;;;693.72;639.03;;;;;;;;;;5045211;28;20486;-62
2023/07/01 06:06:13;;;;;;;713.13;657.13;;;;;;;;;;5051442;28;20071;-60
2023/07/01 06:08:41;;;;;;;738.80;680.92;;;;;;;;;;5051455;28;20076;-58
2023/07/01 06:11:08;;;;;;;777.47;716.50;;;;;;;;;;5034780;28;20045;-60
2023/07/01 06:13:36;;;;;;;871.58;799.58;;;;;;;;;;5034204;28;20045;-62
2023/07/01 06:16:03;;;;;;;814.25;749.58;;;;;;;;;;5051986;28;20571;-61
2023/07/01 06:18:35;;;;;;;837.45;771.42;;;;;;;;;;5034336;28;20128;-63
2023/07/01 06:21:06;;;;;;;803.13;736.03;;;;;;;;;;5032468;28;20143;-54
2023/07/01 06:23:34;;;;;;;755.63;697.65;;;;;;;;;;5036415;28;20743;-59
2023/07/01 06:26:00;;;;;;;773.40;713.92;;;;;;;;;;5048919;28;20041;-52
2023/07/01 06:28:27;;;;;;;764.67;703.83;;;;;;;;;;5053104;28;20052;-62
2023/07/01 06:30:54;;;;;;;747.63;689.42;;;;;;;;;;5054123;28;20041;-59
2023/07/01 06:33:20;;;;;;;746.17;687.88;;;;;;;;;;5034067;28;20060;-57
2023/07/01 06:35:47;;;;;;;762.53;704.70;;;;;;;;;;5049044;28;20045;-62
2023/07/01 06:38:14;;;;;;;804.45;742.17;;;;;;;;;;5049340;28;20048;-61
2023/07/01 06:40:41;;;;;;;777.00;713.17;;;;;;;;;;5050711;28;20509;-59
2023/07/01 06:43:07;;;;;;;794.10;733.13;;;;;;;;;;5052516;28;20413;-59
2023/07/01 06:45:34;;;;;;;698.38;644.75;;;;;;;;;;5033470;28;20044;-59
2023/07/01 06:48:01;;;;;;;727.45;672.28;;;;;;;;;;5049821;28;20128;-57
2023/07/01 06:50:28;;;;;;;719.20;663.03;;;;;;;;;;5050089;28;20140;-63
2023/07/01 06:52:55;;;;;;;744.22;687.20;;;;;;;;;;5049913;28;20045;-62
2023/07/01 06:55:22;;;;;;;755.20;697.25;;;;;;;;;;5053532;28;20064;-61
2023/07/01 06:57:49;;;;;;;778.15;718.38;;;;;;;;;;5050404;28;20052;-58
2023/07/01 07:00:16;;;;;;;763.95;705.92;;;;;;;;;;5050529;28;20060;-58
2023/07/01 07:02:43;;;;;;;775.30;715.40;;;;;;;;;;5049855;28;20055;-53
2023/07/01 07:05:09;;;;;;;802.90;739.78;;;;;;;;;;5050761;28;20044;-60
2023/07/01 07:07:37;;;;;;;847.08;777.80;;;;;;;;;;5033302;28;20045;-62
2023/07/01 07:10:08;;;;;;;801.45;739.38;;;;;;;;;;5051001;28;20025;-61
2023/07/01 07:12:34;;;;;;;784.40;720.55;;;;;;;;;;5033931;28;20043;-60
2023/07/01 07:15:01;;;;;;;762.88;703.17;;;;;;;;;;5050560;28;20045;-58
2023/07/01 07:17:28;;;;;;;754.63;696.22;;;;;;;;;;5048644;28;20037;-60
2023/07/01 07:19:55;;;;;;;716.53;661.00;;;;;;;;;;5049530;28;20044;-60
2023/07/01 07:22:21;;;;;;;713.65;657.50;;;;;;;;;;5034756;28;20053;-60
2023/07/01 07:24:48;;;;;;;729.38;672.50;;;;;;;;;;5048528;28;20076;-60
2023/07/01 07:27:16;;;;;;;739.80;682.65;;;;;;;;;;5033614;28;20037;-60
2023/07/01 07:29:44;;;;;;;734.97;677.35;;;;;;;;;;5018288;28;20052;-59
2023/07/01 07:32:11;;;;;;;754.13;692.17;;;;;;;;;;5048318;28;20049;-59
2023/07/01 07:34:38;;;;;;;751.70;689.33;;;;;;;;;;5033124;28;20047;-60
2023/07/01 07:37:05;;;;;;;735.55;678.47;;;;;;;;;;5049739;28;20099;-61
2023/07/01 07:39:32;;;;;;;715.15;660.72;;;;;;;;;;5033715;28;20040;-59
2023/07/01 07:41:59;;;;;;;718.58;663.13;;;;;;;;;;5034055;28;20045;-59
2023/07/01 07:44:26;;;;;;;720.85;664.70;;;;;;;;;;5051919;28;20033;-58
2023/07/01 07:46:54;;;;;;;735.88;677.90;;;;;;;;;;5047466;28;20042;-55
2023/07/01 07:49:21;;;;;;;729.63;671.50;;;;;;;;;;5036461;28;20501;-56
2023/07/01 07:51:48;;;;;;;724.45;669.28;;;;;;;;;;5052797;28;20037;-60
2023/07/01 07:54:14;;;;;;;727.90;671.63;;;;;;;;;;5036865;28;20072;-60
2023/07/01 07:56:41;;;;;;;753.30;694.45;;;;;;;;;;5049714;28;20041;-60
2023/07/01 07:59:08;;;;;;;782.60;722.20;;;;;;;;;;5054044;28;20104;-64
2023/07/01 08:01:34;;;;;;;790.20;725.90;;;;;;;;;;5036302;28;20047;-60
2023/07/01 08:04:01;;;;;;;777.55;717.78;;;;;;;;;;5054029;28;20084;-59
2023/07/01 08:06:28;;;;;;;781.33;720.25;;;;;;;;;;5052926;28;20049;-60
2023/07/01 08:08:54;;;;;;;785.67;724.08;;;;;;;;;;5033993;28;20037;-60
2023/07/01 08:11:21;;;;;;;782.83;722.13;;;;;;;;;;5035577;28;20049;-59
2023/07/01 08:13:47;;;;;;;765.03;704.65;;;;;;;;;;5053484;28;20045;-60
2023/07/01 08:16:14;;;;;;;745.20;688.03;;;;;;;;;;5057616;28;20491;-57
2023/07/01 08:18:41;;;;;;;720.75;664.08;;;;;;;;;;5055122;28;20045;-60
2023/07/01 08:21:08;;;;;;;693.80;640.20;;;;;;;;;;5042289;28;20068;-60
2023/07/01 08:23:34;;;;;;;641.13;591.10;;;;;;;;;;5036149;28;20486;-60
2023/07/01 08:26:01;;;;;;;645.08;595.30;;;;;;;;;;5052604;28;20506;-59
2023/07/01 08:28:31;;;;;;;626.67;578.85;;;;;;;;;;5055990;28;20136;-60
2023/07/01 08:30:58;;;;;;;654.08;602.80;;;;;;;;;;5051197;28;20132;-59
2023/07/01 08:33:26;;;;;;;650.88;600.08;;;;;;;;;;5049272;28;20044;-59
2023/07/01 08:35:52;;;;;;;630.25;582.05;;;;;;;;;;5029521;28;20102;-58
2023/07/01 08:38:19;;;;;;;636.95;589.13;;;;;;;;;;5051835;28;20041;-55
2023/07/01 08:40:47;;;;;;;641.75;590.35;;;;;;;;;;5051437;28;20128;-60
2023/07/01 08:43:14;;;;;;;653.67;602.50;;;;;;;;;;5049773;28;20041;-59
2023/07/01 08:45:40;;;;;;;648.85;598.25;;;;;;;;;;5051902;28;20095;-59
2023/07/01 08:48:08;;;;;;;640.10;591.03;;;;;;;;;;5051430;28;20033;-59
2023/07/01 08:50:42;;;;;;;660.78;609.15;;;;;;;;;;5032706;28;20041;-60
2023/07/01 08:53:10;;;;;;;655.50;604.60;;;;;;;;;;5050449;28;20068;-56
2023/07/01 08:55:37;;;;;;;700.42;643.17;;;;;;;;;;5052221;28;20059;-62
2023/07/01 08:58:04;;;;;;;685.42;632.83;;;;;;;;;;5051375;28;20609;-57
2023/07/01 09:00:31;;;;;;;700.20;646.03;;;;;;;;;;5032873;28;20044;-59
2023/07/01 09:03:01;;;;;;;713.88;656.88;;;;;;;;;;5047159;28;20050;-60
2023/07/01 09:05:28;;;;;;;719.08;662.75;;;;;;;;;;5033259;28;20044;-59
2023/07/01 09:07:55;;;;;;;737.65;679.10;;;;;;;;;;5043932;28;20053;-60
2023/07/01 09:10:22;;;;;;;746.30;688.03;;;;;;;;;;5033614;28;20045;-60
2023/07/01 09:12:49;;;;;;;735.55;677.55;;;;;;;;;;5050754;28;20048;-60
2023/07/01 09:15:15;;;;;;;732.75;674.47;;;;;;;;;;5054037;28;20047;-60
2023/07/01 09:17:45;;;;;;;735.75;677.97;;;;;;;;;;5053342;28;20045;-53
2023/07/01 09:20:13;;;;;;;735.50;676.95;;;;;;;;;;5043044;28;20108;-56
2023/07/01 09:22:41;;;;;;;749.20;689.13;;;;;;;;;;5035361;28;20072;-59
2023/07/01 09:25:08;;;;;;;735.08;677.08;;;;;;;;;;5035488;28;20075;-60
2023/07/01 09:27:40;;;;;;;712.45;656.60;;;;;;;;;;5035581;28;20048;-61
2023/07/01 09:30:22;;;;;;;724.42;667.65;;;;;;;;;;5036353;28;20037;-60
2023/07/01 09:32:48;;;;;;;713.13;656.42;;;;;;;;;;5035912;28;20193;-60
2023/07/01 09:35:15;;;;;;;709.80;653.40;;;;;;;;;;5036775;28;20051;-60
2023/07/01 09:37:42;;;;;;;727.63;667.58;;;;;;;;;;5052827;28;20140;-59
2023/07/01 09:40:22;;;;;;;733.15;675.22;;;;;;;;;;5053981;28;20068;-58
2023/07/01 09:42:52;;;;;;;758.42;698.97;;;;;;;;;;5018189;28;20080;-55
2023/07/01 09:45:18;;;;;;;774.78;714.83;;;;;;;;;;5049443;28;20478;-54
2023/07/01 09:47:51;;;;;;;796.25;733.70;;;;;;;;;;5047724;28;20090;-59
2023/07/01 09:50:29;;;;;;;802.53;740.20;;;;;;;;;;5048987;28;20056;-59
2023/07/01 09:52:56;;;;;;;829.90;765.08;;;;;;;;;;5032604;28;20465;-57
2023/07/01 09:55:27;;;;;;;843.35;777.65;;;;;;;;;;5036935;28;20048;-59
2023/07/01 09:57:56;;;;;;;816.03;751.90;;;;;;;;;;5034750;28;20088;-60
2023/07/01 10:00:25;;;;;;;848.15;781.70;;;;;;;;;;5035472;28;20182;-62
2023/07/01 10:02:53;;;;;;;781.28;719.42;;;;;;;;;;5049316;28;20409;-65
2023/07/01 10:05:21;;;;;;;769.90;708.17;;;;;;;;;;5018785;28;20041;-59
2023/07/01 10:07:48;;;;;;;757.88;695.40;;;;;;;;;;5033883;28;20037;-62
2023/07/01 10:10:21;;;;;;;768.72;708.30;;;;;;;;;;5052169;28;20064;-61
2023/07/01 10:12:48;;;;;;;774.75;714.45;;;;;;;;;;5052600;28;20098;-61
2023/07/01 10:15:18;;;;;;;805.05;742.22;;;;;;;;;;5049425;28;20037;-62
2023/07/01 10:17:46;;;;;;;813.80;749.90;;;;;;;;;;5049046;28;20045;-54
2023/07/01 10:20:26;;;;;;;836.85;770.03;;;;;;;;;;5033891;28;20099;-51
2023/07/01 10:22:54;;;;;;;829.70;763.05;;;;;;;;;;5050437;28;20048;-50
2023/07/01 10:25:30;;;;;;;788.88;726.85;;;;;;;;;;5035542;28;20484;-49
2023/07/01 10:27:59;;;;;;;791.22;728.50;;;;;;;;;;5050098;28;20128;-56
2023/07/01 10:30:26;;;;;;;786.97;725.17;;;;;;;;;;5031309;28;20449;-59
2023/07/01 10:32:53;;;;;;;800.92;738.13;;;;;;;;;;5031195;28;20044;-54
2023/07/01 10:35:20;;;;;;;794.30;732.17;;;;;;;;;;5049987;28;20059;-58
2023/07/01 10:38:05;;;;;;;809.33;743.83;;;;;;;;;;5033332;28;20421;-75
2023/07/01 10:40:32;;;;;;;754.08;693.35;;;;;;;;;;5028659;28;20096;-58
2023/07/01 10:43:18;;;;;;;717.92;660.65;;;;;;;;;;5035232;28;20049;-55
2023/07/01 10:45:44;;;;;;;715.85;659.42;;;;;;;;;;5049923;28;20041;-62
2023/07/01 10:48:11;;;;;;;694.72;640.05;;;;;;;;;;5034851;28;20410;-65
2023/07/01 10:50:57;;;;;;;684.63;630.47;;;;;;;;;;5050610;28;20450;-64
2023/07/01 10:53:24;;;;;;;675.13;622.15;;;;;;;;;;5050381;28;20047;-64
2023/07/01 10:55:50;;;;;;;692.05;636.30;;;;;;;;;;5041659;28;20056;-64
2023/07/01 10:58:21;;;;;;;668.92;616.05;;;;;;;;;;5053420;28;20406;-64
2023/07/01 11:00:49;;;;;;;676.75;622.03;;;;;;;;;;5051116;28;20056;-64
2023/07/01 11:03:34;;;;;;;652.05;600.67;;;;;;;;;;5048297;28;20044;-64
2023/07/01 11:06:03;;;;;;;649.17;598.55;;;;;;;;;;5047845;28;20128;-64
2023/07/01 11:08:32;;;;;;;654.33;602.60;;;;;;;;;;5049045;28;20053;-62
2023/07/01 11:10:59;;;;;;;659.65;607.92;;;;;;;;;;5048914;28;20044;-64
2023/07/01 11:13:26;;;;;;;648.00;595.95;;;;;;;;;;5052573;28;20517;-64
2023/07/01 11:16:19;;;;;;;658.67;605.92;;;;;;;;;;5049695;28;20048;-62
2023/07/01 11:18:50;;;;;;;646.92;596.45;;;;;;;;;;5045819;28;20566;-59
2023/07/01 11:21:27;;;;;;;651.75;600.83;;;;;;;;;;5048416;28;20044;-64
2023/07/01 11:23:55;;;;;;;632.70;583.42;;;;;;;;;;5048209;28;20045;-66
2023/07/01 11:26:23;;;;;;;650.92;599.08;;;;;;;;;;5030296;28;20037;-64
2023/07/01 11:28:50;;;;;;;637.53;586.90;;;;;;;;;;5049487;28;20045;-65
2023/07/01 11:31:18;;;;;;;648.58;598.45;;;;;;;;;;5051451;28;20033;-65
2023/07/01 11:33:45;;;;;;;657.63;605.72;;;;;;;;;;5050222;28;20049;-65
2023/07/01 11:36:16;;;;;;;653.83;603.60;;;;;;;;;;5048374;28;20128;-62
2023/07/01 11:38:47;;;;;;;659.17;607.72;;;;;;;;;;5048091;28;20040;-60
2023/07/01 11:41:15;;;;;;;641.55;591.33;;;;;;;;;;5033427;28;20041;-63
2023/07/01 11:43:42;;;;;;;649.58;595.40;;;;;;;;;;5050341;28;20045;-63
2023/07/01 11:46:09;;;;;;;650.85;597.53;;;;;;;;;;5050892;28;20041;-62
2023/07/01 11:48:36;;;;;;;674.53;616.65;;;;;;;;;;5048814;28;20083;-62
2023/07/01 11:51:03;;;;;;;648.28;594.53;;;;;;;;;;5048919;28;20498;-62
2023/07/01 11:53:29;;;;;;;662.58;610.30;;;;;;;;;;5049058;28;20041;-63
2023/07/01 11:55:58;;;;;;;669.15;615.28;;;;;;;;;;5045484;28;20116;-61
2023/07/01 11:58:27;;;;;;;651.67;600.75;;;;;;;;;;5052532;28;20048;-59
2023/07/01 12:00:54;;;;;;;662.95;610.03;;;;;;;;;;5047481;28;20080;-59
2023/07/01 12:03:21;;;;;;;639.47;589.15;;;;;;;;;;5027767;28;20048;-60
2023/07/01 12:05:48;;;;;;;650.03;598.17;;;;;;;;;;5046041;28;20037;-61
2023/07/01 12:08:15;;;;;;;639.33;588.25;;;;;;;;;;5047631;28;20656;-63
2023/07/01 12:10:42;;;;;;;654.50;598.90;;;;;;;;;;5050304;28;20110;-62
2023/07/01 12:13:26;;;;;;;628.13;579.38;;;;;;;;;;5033997;28;20056;-62
2023/07/01 12:15:54;;;;;;;624.15;574.55;;;;;;;;;;5048417;28;20119;-64
2023/07/01 12:18:22;;;;;;;624.67;576.08;;;;;;;;;;5047667;28;20037;-64
2023/07/01 12:20:49;;;;;;;637.35;587.65;;;;;;;;;;5047309;28;20065;-57
2023/07/01 12:23:15;;;;;;;629.03;578.97;;;;;;;;;;5047736;28;20041;-64
2023/07/01 12:25:42;;;;;;;644.67;590.95;;;;;;;;;;5049907;28;20048;-64
2023/07/01 12:28:09;;;;;;;647.85;596.83;;;;;;;;;;5049391;28;20068;-63
2023/07/01 12:30:35;;;;;;;648.85;597.92;;;;;;;;;;5047338;28;20052;-64
2023/07/01 12:33:02;;;;;;;650.75;599.63;;;;;;;;;;5037963;28;20040;-64
2023/07/01 12:35:29;;;;;;;652.92;602.03;;;;;;;;;;5047706;28;20059;-64
2023/07/01 12:37:57;;;;;;;668.30;614.63;;;;;;;;;;5043635;28;20113;-65
2023/07/01 12:40:27;;;;;;;674.88;621.85;;;;;;;;;;5051972;28;20048;-66
2023/07/01 12:42:54;;;;;;;667.92;616.25;;;;;;;;;;5047249;28;20049;-65
2023/07/01 12:45:20;;;;;;;679.03;625.08;;;;;;;;;;5047971;28;20072;-64
2023/07/01 12:47:47;;;;;;;687.42;632.83;;;;;;;;;;5044224;28;20041;-64
2023/07/01 12:50:14;;;;;;;695.78;640.10;;;;;;;;;;5048348;28;20118;-67
2023/07/01 12:52:40;;;;;;;717.75;657.95;;;;;;;;;;5047392;28;20441;-64
2023/07/01 12:55:08;;;;;;;683.80;628.90;;;;;;;;;;5050733;28;20139;-64
2023/07/01 13:00:51;;;;;;;694.63;632.38;;;;;;;;;;5046767;28;20029;-64
2023/07/01 13:03:46;;;;;;;747.38;688.47;;;;;;;;;;5032542;28;20053;-62
2023/07/01 13:06:22;;;;;;;734.70;671.80;;;;;;;;;;5022828;28;20077;-63
2023/07/01 13:09:01;;;;;;;796.90;733.53;;;;;;;;;;5026568;28;20041;-63
2023/07/01 13:11:28;;;;;;;822.90;757.78;;;;;;;;;;5025484;28;20041;-64
2023/07/01 13:14:00;;;;;;;860.92;792.00;;;;;;;;;;5024480;28;20045;-64
2023/07/01 13:16:30;;;;;;;881.42;812.13;;;;;;;;;;5030217;28;20526;-65
2023/07/01 13:18:58;;;;;;;864.63;796.60;;;;;;;;;;5013124;28;20045;-64
2023/07/01 13:21:25;;;;;;;843.08;775.65;;;;;;;;;;5026666;28;20041;-63
2023/07/01 13:23:54;;;;;;;824.53;758.90;;;;;;;;;;5026015;28;20100;-61
2023/07/01 13:26:30;;;;;;;810.15;744.58;;;;;;;;;;5026477;28;20380;-64
2023/07/01 13:28:57;;;;;;;817.53;753.17;;;;;;;;;;5027077;28;20687;-65
2023/07/01 13:31:24;;;;;;;861.63;793.67;;;;;;;;;;5031275;28;20049;-63
2023/07/01 13:33:59;;;;;;;909.13;836.72;;;;;;;;;;5029475;28;20049;-63
2023/07/01 13:36:25;;;;;;;910.40;837.58;;;;;;;;;;5023130;28;20116;-64
2023/07/01 13:38:52;;;;;;;837.30;769.55;;;;;;;;;;5022686;28;20041;-62
2023/07/01 13:41:22;;;;;;;830.38;764.33;;;;;;;;;;5027258;28;20475;-64
2023/07/01 13:43:51;;;;;;;863.13;790.95;;;;;;;;;;5026604;28;20521;-64
2023/07/01 13:46:18;;;;;;;858.53;791.15;;;;;;;;;;5029636;28;20402;-63
2023/07/01 13:48:45;;;;;;;873.97;804.80;;;;;;;;;;5025024;28;20041;-62
2023/07/01 13:51:12;;;;;;;864.05;795.90;;;;;;;;;;5027648;28;20033;-58
2023/07/01 13:53:38;;;;;;;808.17;743.90;;;;;;;;;;5028900;28;20487;-65
2023/07/01 13:56:05;;;;;;;808.47;744.03;;;;;;;;;;5031797;28;20046;-64
2023/07/01 13:58:41;;;;;;;805.35;741.40;;;;;;;;;;5034264;28;20092;-66
2023/07/01 14:01:08;;;;;;;771.17;710.75;;;;;;;;;;5028533;28;20088;-64
2023/07/01 14:03:44;;;;;;;766.90;705.42;;;;;;;;;;5047687;28;20106;-63
2023/07/01 14:06:11;;;;;;;739.25;681.47;;;;;;;;;;5066261;28;20044;-63
2023/07/01 14:08:38;;;;;;;750.92;691.45;;;;;;;;;;5068292;28;20052;-63